Time;durP1;ratioP1;P1;durP2;ratioP2;P2;SDS_P1;SDS_P2;PMS_P1;PMS_P2;Temp;Humidity;BMP_temperature;BMP_pressure;BME280_temperature;BME280_humidity;BME280_pressure;Samples;Min_cycle;Max_cycle;Signal;HPM_P1;HPM_P2
2021/12/13 00:02:26;;;;;;;21.48;13.65;;;;;;;2.85;96.61;99656.06;1692458;84;21094;-69
2021/12/13 00:05:10;;;;;;;20.15;13.40;;;;;;;2.86;96.66;99659.06;1692555;84;21535;-69
2021/12/13 00:07:42;;;;;;;20.25;13.68;;;;;;;2.89;96.51;99672.73;1692570;84;21551;-69
2021/12/13 00:10:17;;;;;;;24.72;16.12;;;;;;;2.91;96.51;99676.16;1692730;84;21074;-69
2021/12/13 00:12:47;;;;;;;19.45;12.80;;;;;;;2.91;96.64;99665.02;1692702;84;21869;-69
2021/12/13 00:15:19;;;;;;;18.15;12.85;;;;;;;2.94;96.63;99675.28;1692713;84;20987;-69
2021/12/13 00:17:50;;;;;;;24.77;14.75;;;;;;;2.94;96.36;99682.98;1691894;84;21003;-68
2021/12/13 00:20:39;;;;;;;20.60;13.13;;;;;;;2.90;96.52;99678.73;1698972;84;21000;-68
2021/12/13 00:23:22;;;;;;;17.65;12.28;;;;;;;2.88;96.23;99672.31;1702163;84;20952;-68
2021/12/13 00:25:52;;;;;;;19.48;13.20;;;;;;;2.84;96.17;99675.77;1702080;84;21553;-68
2021/12/13 00:28:19;;;;;;;18.90;12.70;;;;;;;2.83;96.57;99675.34;1701307;84;21400;-68
2021/12/13 00:31:05;;;;;;;20.15;14.18;;;;;;;2.86;96.71;99680.89;1702045;84;20954;-68
2021/12/13 00:33:47;;;;;;;21.07;13.30;;;;;;;2.88;96.60;99681.30;1701689;84;21466;-68
2021/12/13 00:36:19;;;;;;;20.88;13.50;;;;;;;2.88;96.38;99677.88;1701192;84;21372;-69
2021/12/13 00:38:49;;;;;;;22.50;14.85;;;;;;;2.91;96.67;99676.16;1702257;84;21144;-69
2021/12/13 00:41:22;;;;;;;25.30;15.45;;;;;;;2.98;96.60;99671.83;1702045;84;20975;-69
2021/12/13 00:43:52;;;;;;;;;;;;;;;3.00;96.17;99663.65;1704864;84;21002;-69
2021/12/13 00:46:18;;;;;;;23.67;14.78;;;;;;;3.03;96.34;99664.48;1702129;83;20410;-69
2021/12/13 00:48:48;;;;;;;25.20;15.75;;;;;;;3.05;96.15;99656.33;1702055;84;21510;-69
2021/12/13 00:51:25;;;;;;;20.68;13.85;;;;;;;3.07;95.82;99657.17;1702194;84;21396;-69
2021/12/13 00:53:52;;;;;;;21.40;14.55;;;;;;;3.09;95.68;99640.46;1697610;84;20986;-68
2021/12/13 00:56:53;;;;;;;21.60;15.18;;;;;;;3.09;95.70;99632.32;1702119;84;20967;-69
2021/12/13 00:59:51;;;;;;;20.75;14.35;;;;;;;3.14;95.63;99627.58;1702417;83;21019;-68
2021/12/13 01:02:26;;;;;;;23.85;15.08;;;;;;;3.15;95.09;99622.42;1701765;84;20947;-70
2021/12/13 01:05:04;;;;;;;22.37;14.18;;;;;;;3.08;95.15;99631.05;1702395;84;21729;-69
2021/12/13 01:08:00;;;;;;;26.57;15.25;;;;;;;3.09;95.25;99639.17;1702125;84;21597;-69
2021/12/13 01:10:57;;;;;;;27.40;15.72;;;;;;;3.10;95.49;99624.18;1702167;84;20943;-68
2021/12/13 01:13:52;;;;;;;22.85;15.45;;;;;;;3.13;95.54;99631.02;1702165;84;21422;-68
2021/12/13 01:16:49;;;;;;;20.95;13.32;;;;;;;3.14;95.19;99632.72;1702068;84;20979;-69
2021/12/13 01:26:00;;;;;;;26.00;14.75;;;;;;;3.11;95.23;99628.02;1692926;84;20999;-68
2021/12/13 01:28:29;;;;;;;24.85;14.95;;;;;;;3.15;94.99;99630.57;1690590;84;20964;-68
2021/12/13 01:31:02;;;;;;;22.52;14.63;;;;;;;3.15;95.19;99632.70;1692600;84;20964;-68
2021/12/13 01:33:29;;;;;;;;;;;;;;;3.17;95.02;99635.27;1693883;84;21172;-68
2021/12/13 01:36:00;;;;;;;21.97;14.63;;;;;;;3.18;95.11;99633.13;1692508;84;20151;-68
2021/12/13 01:38:33;;;;;;;22.30;15.45;;;;;;;3.21;95.04;99642.06;1675767;85;21463;-69
2021/12/13 01:41:08;;;;;;;24.05;15.88;;;;;;;3.25;94.87;99648.45;1676176;85;21043;-69
2021/12/13 01:43:38;;;;;;;29.32;19.50;;;;;;;3.25;94.70;99661.30;1677790;85;20995;-68
2021/12/13 01:46:05;;;;;;;26.23;15.88;;;;;;;3.21;94.96;99649.77;1677783;85;21145;-68
2021/12/13 01:48:41;;;;;;;23.20;15.03;;;;;;;3.24;94.95;99651.03;1677700;85;21011;-68
2021/12/13 01:51:11;;;;;;;24.07;15.13;;;;;;;3.28;94.92;99654.85;1677669;85;21522;-69
2021/12/13 01:53:43;;;;;;;23.92;16.40;;;;;;;3.31;94.75;99649.69;1677961;85;21002;-69
2021/12/13 02:02:10;;;;;;;20.80;14.30;;;;;;;3.42;94.58;99627.28;1677585;85;21089;-69
2021/12/13 02:04:36;;;;;;;21.30;15.00;;;;;;;3.44;94.21;99620.41;1664046;85;21003;-69
2021/12/13 02:07:03;;;;;;;20.80;13.50;;;;;;;3.41;93.96;99617.02;1677664;85;21079;-69
2021/12/13 02:09:35;;;;;;;25.50;16.23;;;;;;;3.40;94.05;99617.88;1677671;85;21042;-69
2021/12/13 02:12:05;;;;;;;25.00;14.50;;;;;;;3.41;94.08;99606.30;1677678;85;21843;-69
2021/12/13 02:14:33;;;;;;;22.75;13.90;;;;;;;3.39;93.61;99599.06;1677868;85;21084;-69
2021/12/13 02:17:10;;;;;;;18.30;12.88;;;;;;;3.33;93.27;99599.55;1677727;85;21019;-69
2021/12/13 02:19:58;;;;;;;17.45;11.95;;;;;;;3.22;92.98;99588.07;1677918;85;21046;-70
2021/12/13 02:22:40;;;;;;;15.05;11.80;;;;;;;3.06;93.12;99591.23;1676913;85;20999;-69
2021/12/13 02:25:31;;;;;;;20.17;12.33;;;;;;;2.93;93.67;99589.65;1677915;85;21534;-69
2021/12/13 02:28:06;;;;;;;20.50;13.62;;;;;;;2.88;93.98;99584.13;1676342;85;21537;-69
2021/12/13 02:30:56;;;;;;;17.07;12.50;;;;;;;2.86;94.35;99590.55;1677907;85;21047;-70
2021/12/13 02:33:28;;;;;;;17.15;12.23;;;;;;;2.85;94.31;99595.27;1677983;85;21074;-69
2021/12/13 02:36:03;;;;;;;19.25;14.05;;;;;;;2.88;94.49;99596.97;1677716;85;21040;-69
2021/12/13 02:38:30;;;;;;;20.80;13.93;;;;;;;2.92;94.77;99598.65;1677771;85;22081;-69
2021/12/13 02:40:56;;;;;;;18.77;13.30;;;;;;;2.97;95.08;99585.34;1677572;85;20994;-69
2021/12/13 02:43:27;;;;;;;18.67;13.98;;;;;;;3.01;94.88;99581.85;1677775;85;21565;-69
2021/12/13 02:45:57;;;;;;;20.52;13.45;;;;;;;3.01;94.38;99574.99;1677882;85;26416;-69
2021/12/13 02:48:49;;;;;;;18.67;13.08;;;;;;;2.99;94.31;99591.32;1678003;85;21079;-69
2021/12/13 02:51:31;;;;;;;20.82;13.65;;;;;;;2.96;94.44;99584.92;1677811;85;21166;-69
2021/12/13 02:54:16;;;;;;;21.42;14.18;;;;;;;2.96;94.80;99583.20;1677315;85;21455;-69
2021/12/13 02:56:52;;;;;;;23.50;14.35;;;;;;;3.01;94.93;99578.84;1677971;85;21038;-69
2021/12/13 02:59:21;;;;;;;21.52;13.62;;;;;;;3.07;94.82;99586.52;1677616;84;21476;-69
2021/12/13 03:01:57;;;;;;;23.77;15.93;;;;;;;3.09;94.55;99587.34;1677658;85;21996;-69
2021/12/13 03:04:26;;;;;;;24.10;14.87;;;;;;;3.11;94.28;99581.77;1676428;85;22168;-69
2021/12/13 03:07:01;;;;;;;23.07;15.72;;;;;;;3.13;94.29;99575.77;1677853;85;21078;-68
2021/12/13 03:09:30;;;;;;;24.32;16.12;;;;;;;3.13;94.33;99584.33;1678140;85;20999;-69
2021/12/13 03:11:57;;;;;;;27.00;16.17;;;;;;;3.14;94.33;99584.75;1678042;85;21035;-68
2021/12/13 03:14:29;;;;;;;21.15;14.47;;;;;;;3.17;94.35;99569.30;1677773;85;21035;-69
2021/12/13 03:17:15;;;;;;;24.92;15.72;;;;;;;3.19;93.85;99571.42;1677262;85;21179;-68
2021/12/13 03:19:50;;;;;;;23.38;14.70;;;;;;;3.16;93.75;99577.88;1653412;85;21031;-68
2021/12/13 03:22:47;;;;;;;26.15;16.07;;;;;;;3.14;93.82;99585.17;1657862;85;21467;-68
2021/12/13 03:25:43;;;;;;;25.70;16.95;;;;;;;3.12;93.98;99580.05;1609291;85;21027;-68
2021/12/13 03:28:50;;;;;;;28.12;17.30;;;;;;;3.13;93.80;99584.76;1677988;85;21117;-68
2021/12/13 03:31:24;;;;;;;24.75;16.52;;;;;;;3.12;93.93;99586.47;1678073;85;22132;-68
2021/12/13 03:34:08;;;;;;;28.00;16.97;;;;;;;3.13;94.03;99592.47;1677275;85;21034;-69
2021/12/13 03:36:52;;;;;;;27.32;15.78;;;;;;;3.12;93.86;99589.05;1677868;85;21514;-68
2021/12/13 03:39:24;;;;;;;29.82;17.10;;;;;;;3.15;94.07;99595.45;1677787;85;21027;-69
2021/12/13 03:41:53;;;;;;;26.12;17.25;;;;;;;3.20;93.92;99598.80;1677668;85;21471;-69
2021/12/13 03:44:31;;;;;;;27.50;16.15;;;;;;;3.23;93.72;99606.91;1677718;85;21142;-69
2021/12/13 03:47:06;;;;;;;25.00;16.02;;;;;;;3.21;93.87;99606.92;1677810;85;20987;-68
2021/12/13 03:49:31;;;;;;;28.00;17.12;;;;;;;3.27;93.69;99600.45;1677612;85;21042;-69
2021/12/13 03:51:58;;;;;;;31.27;19.02;;;;;;;3.30;93.74;99604.71;1677739;85;21522;-69
2021/12/13 03:54:26;;;;;;;23.57;16.82;;;;;;;3.34;93.85;99603.39;1677819;85;20998;-69
2021/12/13 03:56:54;;;;;;;25.95;16.85;;;;;;;3.40;93.58;99616.16;1653023;85;21156;-69
2021/12/13 03:59:23;;;;;;;28.02;17.25;;;;;;;3.39;93.08;99606.77;1652752;85;20990;-69
2021/12/13 04:01:54;;;;;;;30.37;17.77;;;;;;;3.39;93.42;99611.06;1678011;85;21054;-69
2021/12/13 04:04:34;;;;;;;23.47;16.62;;;;;;;3.45;93.79;99615.69;1677723;85;21519;-69
2021/12/13 04:07:15;;;;;;;27.70;17.50;;;;;;;3.51;93.38;99610.92;1677867;85;21046;-69
2021/12/13 04:09:43;;;;;;;26.82;17.40;;;;;;;3.53;93.39;99609.19;1663988;85;22036;-69
2021/12/13 04:12:10;;;;;;;29.00;17.80;;;;;;;3.59;93.39;99611.70;1677664;85;21081;-69
2021/12/13 04:14:50;;;;;;;24.90;15.95;;;;;;;3.66;93.16;99613.31;1677820;85;20991;-70
2021/12/13 04:17:44;;;;;;;25.20;16.52;;;;;;;3.72;93.05;99600.83;1677914;85;21030;-70
2021/12/13 04:20:11;;;;;;;28.30;17.73;;;;;;;3.77;92.74;99606.34;1676753;85;21035;-69
2021/12/13 04:22:39;;;;;;;31.30;17.80;;;;;;;3.78;92.62;99605.48;1676899;85;21249;-69
2021/12/13 04:25:14;;;;;;;29.45;17.27;;;;;;;3.80;92.49;99599.85;1677260;85;20999;-69
2021/12/13 04:27:49;;;;;;;30.10;18.02;;;;;;;3.80;92.12;99603.70;1677582;85;21567;-69
2021/12/13 04:30:26;;;;;;;25.08;16.73;;;;;;;3.78;92.09;99611.06;1676948;85;21039;-69
2021/12/13 04:32:58;;;;;;;26.33;17.60;;;;;;;3.80;92.19;99605.00;1677535;85;21602;-68
2021/12/13 04:35:24;;;;;;;29.45;17.95;;;;;;;3.85;92.07;99616.95;1677239;85;21127;-68
2021/12/13 04:37:54;;;;;;;27.55;17.05;;;;;;;3.86;91.96;99607.94;1677143;85;21044;-69
2021/12/13 04:40:29;;;;;;;28.75;17.15;;;;;;;3.86;91.73;99602.79;1677240;85;21091;-68
2021/12/13 04:42:59;;;;;;;23.83;16.25;;;;;;;3.84;91.66;99603.24;1677224;85;21030;-68
2021/12/13 04:45:26;;;;;;;26.50;16.75;;;;;;;3.82;91.49;99580.53;1677281;85;20991;-68
2021/12/13 04:48:10;;;;;;;26.27;16.45;;;;;;;3.75;91.25;99575.92;1677307;85;21540;-69
2021/12/13 04:50:51;;;;;;;26.87;15.43;;;;;;;3.69;91.31;99581.56;1676914;85;21471;-69
2021/12/13 04:53:27;;;;;;;23.10;15.40;;;;;;;3.59;91.35;99579.98;1677302;85;21120;-68
2021/12/13 04:55:54;;;;;;;24.45;15.70;;;;;;;3.48;91.58;99589.09;1677476;85;21010;-68
2021/12/13 04:58:21;;;;;;;23.73;15.23;;;;;;;3.38;91.88;99599.92;1677236;85;21103;-68
2021/12/13 05:00:52;;;;;;;28.85;16.70;;;;;;;3.32;92.15;99613.27;1677226;84;21777;-68
2021/12/13 05:03:21;;;;;;;27.48;16.50;;;;;;;3.26;92.66;99623.59;1677207;85;21007;-68
2021/12/13 05:05:47;;;;;;;26.87;17.52;;;;;;;3.27;93.01;99626.16;1677486;85;20991;-68
2021/12/13 05:08:15;;;;;;;27.45;16.87;;;;;;;3.30;93.34;99615.84;1677275;85;21502;-68
2021/12/13 05:10:47;;;;;;;27.07;16.07;;;;;;;3.36;93.21;99602.94;1677234;85;21042;-69
2021/12/13 05:13:28;;;;;;;24.55;15.60;;;;;;;3.41;93.00;99613.16;1677136;85;21239;-69
2021/12/13 05:16:08;;;;;;;25.52;16.37;;;;;;;3.46;92.87;99607.11;1677417;85;20995;-69
2021/12/13 05:18:32;;;;;;;25.70;17.23;;;;;;;3.49;92.72;99617.80;1676555;85;21031;-69
2021/12/13 05:21:08;;;;;;;25.80;16.87;;;;;;;3.50;92.81;99614.36;1677457;85;21043;-69
2021/12/13 05:23:42;;;;;;;29.18;18.40;;;;;;;3.55;92.67;99611.75;1677653;85;21507;-70
2021/12/13 05:26:10;;;;;;;24.30;15.95;;;;;;;3.51;92.55;99605.78;1654261;85;21078;-70
2021/12/13 05:28:47;;;;;;;26.17;16.23;;;;;;;3.52;92.54;99614.34;1677674;85;20983;-70
2021/12/13 05:31:20;;;;;;;25.68;17.12;;;;;;;3.51;92.38;99622.92;1677721;85;21072;-70
2021/12/13 05:33:55;;;;;;;28.47;17.37;;;;;;;3.53;92.66;99623.33;1677798;85;21019;-70
2021/12/13 05:36:28;;;;;;;27.67;17.75;;;;;;;3.59;92.85;99630.99;1678047;85;21103;-70
2021/12/13 05:39:11;;;;;;;27.58;16.80;;;;;;;3.65;92.61;99630.91;1677709;85;21467;-70
2021/12/13 05:41:39;;;;;;;28.80;17.50;;;;;;;3.68;92.61;99621.88;1678084;85;21027;-70
2021/12/13 05:44:10;;;;;;;25.37;16.20;;;;;;;3.72;92.23;99610.69;1677655;85;20986;-70
2021/12/13 05:46:45;;;;;;;27.95;17.77;;;;;;;3.71;92.03;99613.27;1677662;85;20987;-70
2021/12/13 05:49:25;;;;;;;26.07;17.77;;;;;;;3.69;92.07;99613.29;1676747;85;21047;-69
2021/12/13 05:52:08;;;;;;;26.82;17.52;;;;;;;3.73;92.06;99606.39;1668618;85;21551;-68
2021/12/13 05:54:38;;;;;;;25.92;16.80;;;;;;;3.78;91.91;99611.06;1676721;85;21024;-68
2021/12/13 05:57:10;;;;;;;27.42;18.07;;;;;;;3.77;91.45;99600.34;1650862;85;21078;-69
2021/12/13 05:59:42;;;;;;;23.85;16.02;;;;;;;3.68;91.26;99588.86;1676382;85;21543;-69
2021/12/13 06:02:20;;;;;;;28.30;16.85;;;;;;;3.55;91.37;99588.17;1674153;85;21479;-69
2021/12/13 06:05:18;;;;;;;26.17;15.90;;;;;;;3.51;91.88;99610.92;1650491;84;21531;-70
2021/12/13 06:07:54;;;;;;;28.25;17.20;;;;;;;3.50;92.12;99610.50;1672649;85;21004;-70
2021/12/13 06:10:22;;;;;;;26.35;17.12;;;;;;;3.57;92.21;99621.59;1653157;85;21138;-70
2021/12/13 06:12:58;;;;;;;26.35;17.15;;;;;;;3.59;91.88;99619.85;1617406;88;21086;-70
2021/12/13 06:15:34;;;;;;;29.82;17.57;;;;;;;3.55;91.82;99615.17;1618570;88;21003;-70
2021/12/13 06:18:09;;;;;;;31.65;19.05;;;;;;;3.49;92.05;99622.09;1618842;88;21184;-70
2021/12/13 06:21:03;;;;;;;32.85;19.95;;;;;;;3.46;92.53;99638.39;1619225;88;21453;-70
2021/12/13 06:23:32;;;;;;;;;;;;;;;3.53;92.99;99636.63;1621329;88;21104;-69
2021/12/13 06:26:06;;;;;;;28.98;18.20;;;;;;;3.61;92.85;99634.37;1617209;88;20203;-69
2021/12/13 06:28:39;;;;;;;31.90;18.73;;;;;;;3.66;92.56;99638.19;1617934;87;21724;-69
2021/12/13 06:31:13;;;;;;;56.55;30.90;;;;;;;3.69;92.38;99627.44;1618596;88;21851;-69
2021/12/13 06:33:53;;;;;;;36.85;23.83;;;;;;;3.73;92.06;99621.83;1619124;88;21604;-70
2021/12/13 06:36:29;;;;;;;33.73;19.35;;;;;;;3.75;92.02;99632.52;1618004;88;21060;-69
2021/12/13 06:38:58;;;;;;;36.15;21.45;;;;;;;3.77;91.86;99629.94;1618974;88;21027;-68
2021/12/13 06:41:41;;;;;;;36.95;21.37;;;;;;;3.77;91.62;99630.78;1618877;87;20986;-70
2021/12/13 06:44:19;;;;;;;41.30;29.50;;;;;;;3.80;91.65;99630.72;1653246;85;21161;-69
2021/12/13 06:47:02;;;;;;;39.18;24.02;;;;;;;3.81;91.37;99636.28;1677679;85;20983;-70
2021/12/13 06:49:35;;;;;;;;;;;;;;;3.83;91.37;99627.27;1680278;85;20965;-69
2021/12/13 06:52:13;;;;;;;46.05;29.57;;;;;;;3.85;91.28;99618.25;1670278;85;20465;-71
2021/12/13 06:55:00;;;;;;;35.30;20.85;;;;;;;3.85;91.18;99627.25;1673635;85;21086;-71
2021/12/13 06:57:42;;;;;;;37.42;21.07;;;;;;;3.81;91.07;99636.28;1677593;85;21555;-73
2021/12/13 07:00:25;;;;;;;36.35;19.73;;;;;;;3.81;91.17;99636.28;1683639;84;21102;-71
2021/12/13 07:02:59;;;;;;;34.73;20.35;;;;;;;3.81;91.18;99635.44;1676579;85;21042;-72
2021/12/13 07:05:45;;;;;;;36.03;19.98;;;;;;;3.81;91.20;99639.30;1655153;85;21737;-74
2021/12/13 07:08:20;;;;;;;38.08;20.75;;;;;;;3.82;91.54;99644.86;1675155;85;21043;-72
2021/12/13 07:11:01;;;;;;;35.98;19.67;;;;;;;3.86;91.57;99647.81;1676346;85;22161;-71
2021/12/13 07:13:39;;;;;;;37.33;20.85;;;;;;;3.89;91.27;99655.94;1676247;85;21044;-71
2021/12/13 07:16:16;;;;;;;38.95;22.98;;;;;;;3.88;91.21;99664.53;1676468;85;20991;-71
2021/12/13 07:18:56;;;;;;;36.68;19.65;;;;;;;3.84;90.93;99658.99;1676262;85;21031;-70
2021/12/13 07:21:41;;;;;;;38.88;21.80;;;;;;;3.78;91.12;99654.36;1677668;85;21252;-72
2021/12/13 07:24:13;;;;;;;38.58;22.37;;;;;;;3.76;91.25;99648.38;1643118;87;21434;-71
2021/12/13 07:26:54;;;;;;;35.17;20.40;;;;;;;3.75;91.51;99659.53;1650038;87;21079;-70
2021/12/13 07:29:37;;;;;;;36.38;20.20;;;;;;;3.77;91.87;99663.38;1649946;87;21217;-72
2021/12/13 07:32:24;;;;;;;;;;;;;;;3.81;92.05;99662.45;1669563;84;21105;-74
2021/12/13 07:35:11;;;;;;;35.88;21.35;;;;;;;3.89;91.87;99656.80;1676174;84;20446;-73
2021/12/13 07:37:49;;;;;;;34.83;20.30;;;;;;;3.93;91.66;99651.19;1674533;85;21515;-72
2021/12/13 07:40:33;;;;;;;34.30;19.57;;;;;;;3.94;91.75;99647.30;1675161;83;20982;-74
2021/12/13 07:43:08;;;;;;;32.38;18.70;;;;;;;3.95;91.60;99631.00;1672701;85;21097;-71
2021/12/13 07:45:54;;;;;;;32.48;19.57;;;;;;;3.85;91.10;99642.69;1677441;84;21040;-71
2021/12/13 07:48:43;;;;;;;30.02;18.32;;;;;;;3.77;91.60;99652.66;1676469;85;21178;-72
2021/12/13 07:51:30;;;;;;;32.08;18.55;;;;;;;3.75;91.64;99651.81;1676156;84;21504;-70
2021/12/13 07:54:05;;;;;;;38.05;20.92;;;;;;;3.73;91.61;99652.70;1672330;84;21130;-70
2021/12/13 07:56:43;;;;;;;36.08;19.85;;;;;;;3.71;92.02;99673.29;1671523;85;21520;-71
2021/12/13 07:59:30;;;;;;;33.40;19.65;;;;;;;3.74;92.25;99683.55;1675967;84;21069;-71
2021/12/13 08:02:23;;;;;;;41.20;24.52;;;;;;;3.78;92.23;99697.24;1672841;83;21570;-73
2021/12/13 08:05:08;;;;;;;41.42;23.27;;;;;;;3.79;92.39;99695.09;1677358;85;22114;-71
2021/12/13 08:07:45;;;;;;;33.95;22.27;;;;;;;3.85;92.48;99678.27;1675805;85;21047;-73
2021/12/13 08:10:23;;;;;;;34.10;21.35;;;;;;;3.88;92.04;99674.39;1675254;85;21080;-73
2021/12/13 08:12:54;;;;;;;34.88;21.45;;;;;;;3.91;91.89;99673.50;1675600;85;21122;-71
2021/12/13 08:15:26;;;;;;;30.65;18.52;;;;;;;3.91;91.60;99677.36;1671075;84;21063;-71
2021/12/13 08:17:56;;;;;;;;;;;;;;;3.95;91.80;99677.75;1678324;85;21613;-73
2021/12/13 08:20:45;;;;;;;30.50;19.35;;;;;;;3.99;91.68;99686.72;1683133;84;21001;-73
2021/12/13 08:23:17;;;;;;;33.53;20.00;;;;;;;4.02;91.49;99682.80;1671122;85;21155;-72
2021/12/13 08:25:44;;;;;;;32.90;20.70;;;;;;;4.05;91.38;99672.90;1674763;85;21031;-72
2021/12/13 08:28:15;;;;;;;29.30;18.30;;;;;;;4.07;90.88;99672.02;1676510;85;21089;-74
2021/12/13 08:30:54;;;;;;;27.37;17.17;;;;;;;4.04;90.54;99673.34;1677115;85;21741;-72
2021/12/13 08:33:42;;;;;;;26.90;17.62;;;;;;;4.03;90.64;99686.22;1676162;84;21113;-72
2021/12/13 08:36:17;;;;;;;28.05;19.00;;;;;;;4.04;90.62;99690.50;1673715;85;21121;-73
2021/12/13 08:38:55;;;;;;;36.23;21.80;;;;;;;4.05;90.85;99691.77;1673910;85;21184;-73
2021/12/13 08:41:41;;;;;;;36.25;22.17;;;;;;;4.08;90.80;99696.89;1675532;85;21023;-74
2021/12/13 08:44:18;;;;;;;33.60;20.62;;;;;;;4.07;90.64;99684.03;1676110;85;21836;-74
2021/12/13 08:46:59;;;;;;;29.37;20.00;;;;;;;4.04;90.83;99683.63;1676615;85;21023;-74
2021/12/13 08:49:51;;;;;;;32.25;22.05;;;;;;;4.06;90.75;99684.47;1664575;85;21138;-74
2021/12/13 08:52:30;;;;;;;29.52;18.85;;;;;;;4.08;90.98;99673.72;1673512;85;21156;-74
2021/12/13 08:55:17;;;;;;;24.07;16.75;;;;;;;4.10;90.89;99665.98;1674768;85;21130;-72
2021/12/13 08:58:00;;;;;;;24.67;17.48;;;;;;;4.06;90.38;99676.75;1673891;85;21149;-72
2021/12/13 09:01:04;;;;;;;28.32;17.32;;;;;;;3.96;90.56;99682.89;1674521;84;21520;-73
2021/12/13 09:03:43;;;;;;;29.72;18.55;;;;;;;3.94;90.88;99680.77;1674997;85;32583;-72
2021/12/13 09:06:18;;;;;;;27.37;18.95;;;;;;;3.95;91.18;99681.18;1673757;85;21134;-72
2021/12/13 09:09:12;;;;;;;28.30;19.27;;;;;;;4.03;91.32;99674.64;1675467;85;21097;-73
2021/12/13 09:12:00;;;;;;;36.45;22.50;;;;;;;4.08;91.42;99675.01;1673916;85;21218;-72
2021/12/13 09:14:38;;;;;;;37.58;23.20;;;;;;;4.19;91.09;99665.03;1675330;84;21074;-72
2021/12/13 09:17:22;;;;;;;26.77;15.50;;;;;;;4.24;90.76;99657.64;1672026;84;21121;-78
2021/12/13 09:19:59;;;;;;;23.83;16.85;;;;;;;4.31;90.33;99655.84;1671571;84;21073;-73
2021/12/13 09:22:37;;;;;;;26.17;17.70;;;;;;;4.38;90.17;99659.63;1672578;85;21062;-74
2021/12/13 09:25:12;;;;;;;23.98;18.75;;;;;;;4.43;89.99;99660.83;1671617;85;21889;-74
2021/12/13 09:28:01;;;;;;;32.33;20.72;;;;;;;4.48;90.14;99667.63;1672971;85;21090;-74
2021/12/13 09:30:48;;;;;;;27.20;17.80;;;;;;;4.54;89.67;99661.55;1672801;85;21003;-76
2021/12/13 09:33:23;;;;;;;26.25;18.62;;;;;;;4.56;89.51;99672.68;1673050;85;21015;-71
2021/12/13 09:36:10;;;;;;;29.10;16.70;;;;;;;4.58;89.42;99671.38;1676590;85;21146;-75
2021/12/13 09:39:24;;;;;;;26.37;16.80;;;;;;;4.57;89.64;99668.38;1675709;85;21552;-72
2021/12/13 09:42:01;;;;;;;28.45;17.52;;;;;;;4.56;89.00;99659.80;1674960;85;21468;-73
2021/12/13 09:44:48;;;;;;;28.80;18.70;;;;;;;4.43;88.90;99659.09;1669066;85;21566;-72
2021/12/13 09:47:21;;;;;;;29.32;19.40;;;;;;;4.41;89.36;99650.98;1677033;85;21046;-73
2021/12/13 09:50:05;;;;;;;25.15;17.62;;;;;;;4.47;89.42;99649.61;1671271;84;21557;-76
2021/12/13 09:52:42;;;;;;;28.15;17.62;;;;;;;4.51;89.31;99657.72;1666215;85;23993;-73
2021/12/13 09:55:17;;;;;;;26.52;17.60;;;;;;;4.54;89.27;99653.81;1676190;85;21070;-74
2021/12/13 09:57:59;;;;;;;27.17;19.10;;;;;;;4.53;89.26;99644.82;1675949;85;21106;-72
2021/12/13 10:00:34;;;;;;;27.05;20.30;;;;;;;4.51;89.32;99638.41;1675152;85;21110;-71
2021/12/13 10:03:04;;;;;;;39.48;33.35;;;;;;;4.49;89.23;99625.55;1676269;85;21618;-70
2021/12/13 10:05:36;;;;;;;28.57;21.87;;;;;;;4.55;89.41;99628.91;1675071;85;21122;-73
2021/12/13 10:08:08;;;;;;;25.68;21.00;;;;;;;4.63;89.28;99630.92;1675453;85;21171;-71
2021/12/13 10:10:47;;;;;;;22.73;16.67;;;;;;;4.74;89.39;99635.48;1677246;85;21389;-74
2021/12/13 10:13:21;;;;;;;23.52;17.62;;;;;;;4.76;89.15;99639.75;1675295;85;21055;-72
2021/12/13 10:15:57;;;;;;;23.70;16.65;;;;;;;4.70;88.60;99632.10;1679387;84;21223;-72
2021/12/13 10:18:28;;;;;;;33.58;27.50;;;;;;;4.63;88.94;99622.75;1680891;84;21135;-72
2021/12/13 10:21:01;;;;;;;21.45;15.10;;;;;;;4.69;88.81;99623.96;1676698;85;21487;-72
2021/12/13 10:23:32;;;;;;;17.85;12.93;;;;;;;4.79;88.26;99633.70;1672267;85;21073;-73
2021/12/13 10:26:01;;;;;;;20.25;17.52;;;;;;;4.81;87.65;99621.62;1684428;84;21102;-72
2021/12/13 10:28:32;;;;;;;25.72;22.70;;;;;;;4.87;87.55;99624.11;1661049;84;21060;-72
2021/12/13 10:31:10;;;;;;;18.98;13.90;;;;;;;4.94;87.17;99621.00;1694750;83;21136;-71
2021/12/13 10:34:22;;;;;;;19.65;14.83;;;;;;;5.01;87.41;99618.28;1713760;83;21034;-73
2021/12/13 10:37:14;;;;;;;18.50;14.73;;;;;;;5.13;86.95;99612.09;1687679;83;21043;-76
2021/12/13 10:39:45;;;;;;;21.73;14.53;;;;;;;5.22;86.77;99629.11;1673812;84;21097;-73
2021/12/13 10:42:30;;;;;;;11.85;7.78;;;;;;;5.25;86.20;99627.33;1692061;84;21132;-73
2021/12/13 10:44:58;;;;;;;11.75;7.90;;;;;;;5.23;85.67;99622.64;1692458;84;22269;-71
2021/12/13 10:47:30;;;;;;;10.65;7.90;;;;;;;5.23;84.42;99625.66;1692549;84;21019;-71
2021/12/13 10:49:56;;;;;;;11.12;9.18;;;;;;;5.23;84.33;99641.98;1690381;84;21070;-72
2021/12/13 10:52:30;;;;;;;16.25;11.88;;;;;;;5.24;84.25;99644.12;1691941;84;21047;-73
2021/12/13 10:55:01;;;;;;;19.07;13.30;;;;;;;5.24;84.40;99629.50;1690996;84;20963;-71
2021/12/13 10:57:33;;;;;;;22.73;15.15;;;;;;;5.20;84.41;99626.55;1691799;84;21148;-72
2021/12/13 11:00:00;;;;;;;19.05;14.53;;;;;;;5.10;84.94;99633.61;1692210;83;21001;-72
2021/12/13 11:02:31;;;;;;;19.42;13.40;;;;;;;5.06;84.91;99636.25;1692953;84;20966;-72
2021/12/13 11:05:18;;;;;;;19.05;15.18;;;;;;;5.06;85.62;99635.81;1697810;83;21060;-73
2021/12/13 11:07:45;;;;;;;27.30;18.07;;;;;;;5.07;85.72;99631.52;1690563;84;21063;-74
2021/12/13 11:10:15;;;;;;;28.10;20.32;;;;;;;5.07;85.96;99641.83;1688810;84;22248;-73
2021/12/13 11:12:46;;;;;;;38.30;25.35;;;;;;;5.08;86.05;99617.75;1694279;83;21046;-73
2021/12/13 11:15:18;;;;;;;34.78;23.73;;;;;;;5.07;85.65;99601.87;1689786;83;21452;-73
2021/12/13 11:17:44;;;;;;;24.25;17.75;;;;;;;5.03;85.42;99598.92;1690161;84;21034;-72
2021/12/13 11:20:31;;;;;;;18.50;14.05;;;;;;;5.03;85.20;99601.06;1691074;84;21152;-84
2021/12/13 11:22:57;;;;;;;23.15;15.43;;;;;;;5.03;84.89;99601.50;1694891;83;21884;-84
2021/12/13 11:25:29;;;;;;;19.15;13.80;;;;;;;5.09;84.94;99604.84;1680485;84;21632;-87
2021/12/13 11:27:56;;;;;;;22.37;16.40;;;;;;;5.19;84.81;99611.98;1679468;84;21015;-86
2021/12/13 11:30:28;;;;;;;27.50;18.80;;;;;;;5.27;85.19;99608.81;1682950;84;21030;-79
2021/12/13 11:33:22;;;;;;;28.30;18.80;;;;;;;5.35;84.55;99604.82;1648571;87;20974;-77
2021/12/13 11:36:46;;;;;;;22.00;13.93;;;;;;;5.35;84.25;99612.13;1680494;85;21345;-77
2021/12/13 11:39:39;;;;;;;20.35;13.58;;;;;;;5.27;84.34;99598.94;1691390;84;21009;-76
2021/12/13 11:42:31;;;;;;;19.95;14.07;;;;;;;5.25;83.86;99613.59;1673764;85;21450;-75
2021/12/13 11:45:25;;;;;;;19.30;13.08;;;;;;;5.20;84.57;99614.51;1678089;84;20997;-77
2021/12/13 11:48:35;;;;;;;15.70;11.95;;;;;;;5.23;84.18;99610.18;1684422;84;21076;-76
2021/12/13 11:51:30;;;;;;;13.93;10.18;;;;;;;5.21;83.88;99611.49;1632395;84;21206;-77
2021/12/13 11:54:52;;;;;;;9.33;7.35;;;;;;;5.26;83.83;99615.29;1680216;84;21492;-76
2021/12/13 11:57:48;;;;;;;12.93;7.87;;;;;;;5.27;83.44;99610.11;1679523;84;21083;-75
2021/12/13 12:00:38;;;;;;;12.18;9.45;;;;;;;5.15;83.44;99606.47;1674721;84;21048;-77
2021/12/13 12:03:42;;;;;;;10.43;7.95;;;;;;;5.05;83.80;99604.47;1673328;84;21212;-76
2021/12/13 12:06:55;;;;;;;10.68;9.13;;;;;;;5.02;83.82;99616.11;1664706;85;21798;-76
2021/12/13 12:09:57;;;;;;;10.30;8.67;;;;;;;4.94;83.61;99617.98;1672393;85;21501;-77
2021/12/13 12:12:48;;;;;;;12.30;8.50;;;;;;;4.82;83.68;99617.73;1669049;84;21001;-76
2021/12/13 12:15:15;;;;;;;10.75;7.78;;;;;;;4.78;84.09;99615.25;1608734;87;21546;-76
2021/12/13 12:17:42;;;;;;;9.78;7.50;;;;;;;4.75;83.78;99628.17;1689384;84;21009;-76
2021/12/13 12:20:16;;;;;;;13.43;9.28;;;;;;;4.70;83.99;99625.66;1683496;84;21168;-78
2021/12/13 12:22:54;;;;;;;10.48;8.25;;;;;;;4.64;84.56;99619.74;1661400;84;21065;-76
2021/12/13 12:25:23;;;;;;;10.25;8.38;;;;;;;4.59;84.54;99623.70;1674335;84;21122;-76
2021/12/13 12:27:55;;;;;;;11.63;8.88;;;;;;;4.50;84.58;99639.27;1679838;84;21078;-75
2021/12/13 12:30:29;;;;;;;9.78;7.85;;;;;;;4.45;84.96;99644.91;1679044;84;21079;-77